Time;durP1;ratioP1;P1;durP2;ratioP2;P2;SDS_P1;SDS_P2;PMS_P1;PMS_P2;Temp;Humidity;BMP_temperature;BMP_pressure;BME280_temperature;BME280_humidity;BME280_pressure;Samples;Min_cycle;Max_cycle;Signal;HPM_P1;HPM_P2
2022/09/13 00:05:00;;;;;;;5.95;5.45;;;;;;;18.99;65.42;99721.72;10309774;28;20042;-76
2022/09/13 00:10:03;;;;;;;6.20;5.70;;;;;;;18.98;65.35;99725.41;10294802;28;20056;-75
2022/09/13 00:15:05;;;;;;;7.63;6.00;;;;;;;18.90;65.31;99739.03;10282154;28;20039;-73
2022/09/13 00:20:08;;;;;;;7.03;6.43;;;;;;;18.93;65.98;99719.78;10294813;28;20046;-74
2022/09/13 00:25:10;;;;;;;6.55;5.95;;;;;;;18.68;65.76;99698.50;10297849;28;20089;-74
2022/09/13 00:30:12;;;;;;;5.78;5.28;;;;;;;18.56;66.12;99702.72;10297658;28;20061;-75
2022/09/13 00:35:13;;;;;;;5.60;5.10;;;;;;;18.47;66.24;99695.78;10295739;28;20046;-77
2022/09/13 00:40:15;;;;;;;6.28;5.78;;;;;;;18.41;66.58;99693.84;10286154;28;20092;-73
2022/09/13 00:45:17;;;;;;;6.65;6.15;;;;;;;18.36;66.96;99697.94;10312816;28;20046;-79
2022/09/13 00:50:37;;;;;;;7.38;5.80;;;;;;;18.23;67.72;99686.97;10304527;28;20050;-74
2022/09/13 00:56:01;;;;;;;6.63;6.03;;;;;;;18.22;67.90;99666.44;10298964;28;20047;-73
2022/09/13 01:01:04;;;;;;;;;;;;;;;18.15;67.88;99670.91;10302974;28;20049;-74
2022/09/13 01:06:10;;;;;;;7.05;6.35;;;;;;;18.08;68.07;99653.84;10297250;28;19932;-74
2022/09/13 01:11:18;;;;;;;7.38;6.72;;;;;;;17.97;69.00;99657.81;10299004;28;20056;-75
2022/09/13 01:16:20;;;;;;;7.43;6.72;;;;;;;17.90;69.03;99663.13;10299186;28;20062;-73
2022/09/13 01:21:30;;;;;;;8.18;7.47;;;;;;;17.87;69.40;99663.47;10298703;28;20062;-75
2022/09/13 01:27:20;;;;;;;7.07;6.38;;;;;;;17.90;69.94;99673.91;10297779;28;20042;-74
2022/09/13 01:32:43;;;;;;;7.13;6.43;;;;;;;17.95;69.42;99682.25;10259624;28;20408;-75
2022/09/13 01:38:22;;;;;;;7.97;7.28;;;;;;;17.99;69.62;99683.53;10276401;28;20046;-75
2022/09/13 01:43:54;;;;;;;7.45;6.75;;;;;;;17.99;69.46;99667.38;10297980;28;20599;-75
2022/09/13 01:49:06;;;;;;;8.40;7.55;;;;;;;17.95;69.65;99654.50;10298901;28;20066;-74
2022/09/13 01:54:20;;;;;;;9.00;8.10;;;;;;;17.82;70.24;99647.03;10297559;28;20074;-77
2022/09/13 01:59:27;;;;;;;;;;;;;;;17.66;70.80;99630.03;10291541;28;20152;-74
2022/09/13 02:04:35;;;;;;;8.48;7.57;;;;;;;17.60;71.04;99614.63;10305278;28;20497;-78
2022/09/13 02:09:41;;;;;;;7.47;6.88;;;;;;;17.79;70.87;99660.84;10293268;28;20140;-76
2022/09/13 02:14:46;;;;;;;8.57;7.68;;;;;;;17.90;71.11;99665.81;10298309;28;20592;-75
2022/09/13 02:19:59;;;;;;;8.40;7.53;;;;;;;17.95;70.06;99671.47;10296326;28;20070;-76
2022/09/13 02:25:11;;;;;;;8.18;7.43;;;;;;;17.87;70.24;99674.25;10297270;28;20046;-74
2022/09/13 02:30:14;;;;;;;7.63;6.93;;;;;;;17.92;70.31;99676.41;10289507;28;20042;-74
2022/09/13 02:35:30;;;;;;;7.70;6.90;;;;;;;17.93;70.00;99676.22;10298992;28;20069;-75
2022/09/13 02:40:39;;;;;;;8.68;7.97;;;;;;;17.81;70.70;99681.19;10294650;28;20050;-78
2022/09/13 02:45:50;;;;;;;7.97;6.78;;;;;;;17.81;70.49;99670.41;10294565;28;20051;-74
2022/09/13 02:51:03;;;;;;;9.68;7.55;;;;;;;17.64;71.07;99666.25;10292477;28;20053;-75
2022/09/13 02:56:10;;;;;;;8.50;7.70;;;;;;;17.60;71.24;99678.41;10308574;28;20061;-77
2022/09/13 03:01:13;;;;;;;8.32;7.53;;;;;;;17.49;71.57;99683.19;10293352;28;20049;-75
2022/09/13 03:06:27;;;;;;;8.10;7.40;;;;;;;17.49;71.78;99682.38;10292480;28;20054;-75
2022/09/13 03:11:43;;;;;;;8.50;7.60;;;;;;;17.42;72.29;99671.47;10290613;28;20054;-74
2022/09/13 03:16:57;;;;;;;7.97;7.28;;;;;;;17.49;71.90;99671.59;10295524;28;20145;-78
2022/09/13 03:22:21;;;;;;;8.88;8.18;;;;;;;17.46;71.96;99661.22;10296151;28;20046;-78
2022/09/13 03:27:33;;;;;;;8.55;7.82;;;;;;;17.34;72.32;99657.28;10293545;28;20058;-76
2022/09/13 03:32:43;;;;;;;8.50;7.68;;;;;;;17.34;72.50;99646.50;10306147;28;20046;-76
2022/09/13 03:38:17;;;;;;;9.70;8.80;;;;;;;17.38;72.48;99648.66;10292070;28;20053;-74
2022/09/13 03:43:34;;;;;;;9.20;8.30;;;;;;;17.33;72.77;99644.84;10281348;28;20046;-75
2022/09/13 03:48:37;;;;;;;9.80;8.20;;;;;;;17.29;72.98;99647.06;10305774;28;20141;-75
2022/09/13 03:53:52;;;;;;;8.47;7.67;;;;;;;17.24;73.03;99647.59;10292700;28;20064;-75
2022/09/13 03:58:53;;;;;;;9.77;7.95;;;;;;;17.22;73.22;99649.66;10292329;28;20068;-79
2022/09/13 04:03:55;;;;;;;9.02;8.23;;;;;;;17.20;73.46;99646.28;10295824;28;20054;-76
2022/09/13 04:08:59;;;;;;;8.75;7.97;;;;;;;17.19;73.67;99636.56;10292710;28;20056;-75
2022/09/13 04:14:02;;;;;;;8.63;7.73;;;;;;;17.11;73.70;99620.50;10291373;28;20522;-80
2022/09/13 04:19:03;;;;;;;9.07;8.27;;;;;;;17.15;73.59;99629.88;10293218;28;20050;-74
2022/09/13 04:24:05;;;;;;;9.38;8.48;;;;;;;17.01;74.08;99625.28;10301699;28;20050;-77
2022/09/13 04:29:06;;;;;;;9.05;8.25;;;;;;;17.04;74.26;99627.59;10299420;28;20489;-77
2022/09/13 04:34:07;;;;;;;8.48;7.68;;;;;;;17.09;74.34;99635.97;10297201;28;20069;-77
2022/09/13 04:39:09;;;;;;;8.68;7.78;;;;;;;17.02;74.50;99637.72;10301365;28;20054;-75
2022/09/13 04:44:11;;;;;;;7.97;7.28;;;;;;;16.98;74.79;99636.41;10301922;28;20061;-77
2022/09/13 04:49:13;;;;;;;8.52;7.68;;;;;;;17.01;74.77;99638.72;10300258;28;20038;-78
2022/09/13 04:54:15;;;;;;;8.10;7.28;;;;;;;16.82;75.50;99635.47;10289189;28;21078;-80
2022/09/13 04:59:16;;;;;;;8.18;7.38;;;;;;;16.90;75.24;99635.47;10279717;28;20050;-77
2022/09/13 05:04:18;;;;;;;8.38;7.47;;;;;;;16.94;75.05;99644.81;10279803;28;20085;-73
2022/09/13 05:09:19;;;;;;;7.75;6.95;;;;;;;16.96;75.13;99656.25;10285337;28;20050;-75
2022/09/13 05:14:21;;;;;;;8.30;7.45;;;;;;;17.03;74.73;99667.09;10288265;28;20058;-75
2022/09/13 05:19:22;;;;;;;7.90;7.22;;;;;;;17.13;74.08;99661.50;10282173;28;20856;-78
2022/09/13 05:24:24;;;;;;;9.57;8.57;;;;;;;17.05;73.97;99656.16;10283261;28;20094;-75
2022/09/13 05:29:25;;;;;;;9.10;8.18;;;;;;;16.96;74.99;99661.63;10285569;28;20604;-75
2022/09/13 05:34:26;;;;;;;10.02;8.32;;;;;;;16.84;74.70;99660.31;10290054;28;20313;-77
2022/09/13 05:39:28;;;;;;;9.20;8.23;;;;;;;16.89;74.93;99660.66;10305383;28;20068;-76
2022/09/13 05:44:44;;;;;;;10.27;7.97;;;;;;;16.96;74.68;99661.63;10280613;28;20046;-77
2022/09/13 05:49:45;;;;;;;9.40;8.13;;;;;;;16.87;74.91;99668.06;10282022;28;20054;-75
2022/09/13 05:55:07;;;;;;;15.73;8.95;;;;;;;17.04;74.73;99686.75;10284266;28;20153;-76
2022/09/13 06:00:09;;;;;;;14.30;9.10;;;;;;;17.14;74.43;99690.03;10273121;28;20556;-75
2022/09/13 06:05:11;;;;;;;17.25;9.35;;;;;;;17.14;74.25;99679.28;10276979;28;20074;-75
2022/09/13 06:10:12;;;;;;;11.68;8.25;;;;;;;17.10;74.45;99672.63;10277348;28;20062;-75
2022/09/13 06:15:14;;;;;;;17.23;9.18;;;;;;;17.18;74.15;99688.66;10275261;28;20061;-73
2022/09/13 06:20:15;;;;;;;17.80;8.60;;;;;;;17.28;74.19;99681.19;10274084;28;20047;-75
2022/09/13 06:25:17;;;;;;;12.55;8.60;;;;;;;17.37;74.02;99681.97;10274471;28;20688;-79
2022/09/13 06:30:18;;;;;;;14.98;8.75;;;;;;;17.31;73.82;99674.63;10273654;28;20047;-76
2022/09/13 06:35:19;;;;;;;16.85;9.07;;;;;;;17.33;74.23;99661.00;10275006;28;20101;-73
2022/09/13 06:40:21;;;;;;;14.07;8.98;;;;;;;17.39;74.66;99665.66;10274187;28;20058;-78
2022/09/13 06:45:25;;;;;;;15.07;8.85;;;;;;;17.45;74.51;99679.19;10275097;28;20053;-75
2022/09/13 06:50:28;;;;;;;10.43;9.15;;;;;;;17.48;74.50;99691.44;10272777;28;20065;-76
2022/09/13 06:55:29;;;;;;;14.68;8.65;;;;;;;17.49;74.47;99687.75;10275829;28;20247;-79
2022/09/13 07:00:31;;;;;;;11.02;7.60;;;;;;;17.60;74.32;99700.75;10270507;28;20069;-77
2022/09/13 07:05:32;;;;;;;9.52;7.30;;;;;;;17.71;74.24;99696.75;10268643;28;20786;-78
2022/09/13 07:10:33;;;;;;;10.82;7.30;;;;;;;17.91;72.45;99707.88;10272112;28;20859;-78
2022/09/13 07:15:35;;;;;;;9.07;8.23;;;;;;;17.99;73.03;99691.63;10269167;28;20576;-79
2022/09/13 07:20:37;;;;;;;11.75;8.07;;;;;;;18.03;72.41;99689.41;10270145;28;20188;-76
2022/09/13 07:25:38;;;;;;;10.65;8.55;;;;;;;18.08;72.26;99691.56;10273133;28;20057;-77
2022/09/13 07:30:39;;;;;;;9.70;8.70;;;;;;;18.16;72.42;99691.44;10274199;28;20058;-75
2022/09/13 07:35:41;;;;;;;10.63;9.52;;;;;;;18.21;71.88;99699.81;10275892;28;20304;-76
2022/09/13 07:40:43;;;;;;;11.27;9.45;;;;;;;18.29;71.34;99690.78;10283628;28;20120;-75
2022/09/13 07:45:44;;;;;;;12.88;8.95;;;;;;;18.25;71.59;99682.22;10277938;28;20540;-74
2022/09/13 07:50:57;;;;;;;10.95;9.85;;;;;;;18.23;71.68;99684.28;10275686;28;20489;-75
2022/09/13 07:56:01;;;;;;;11.32;9.93;;;;;;;18.29;71.02;99680.00;10278843;28;20049;-79
2022/09/13 08:01:05;;;;;;;10.18;9.10;;;;;;;18.42;71.01;99680.19;10276057;28;20749;-73
2022/09/13 08:06:07;;;;;;;9.95;8.95;;;;;;;18.57;70.12;99663.13;10278794;28;20050;-75
2022/09/13 08:11:14;;;;;;;10.93;9.82;;;;;;;18.60;69.20;99655.50;10280328;28;20083;-76
2022/09/13 08:16:18;;;;;;;10.82;9.35;;;;;;;18.75;68.50;99651.91;10280939;28;20050;-74
2022/09/13 08:21:20;;;;;;;;;;;;;;;18.84;67.31;99656.16;10283905;28;20050;-76
2022/09/13 08:26:21;;;;;;;9.55;8.18;;;;;;;18.93;66.80;99652.34;10283285;28;19933;-73
2022/09/13 08:31:25;;;;;;;10.45;9.15;;;;;;;18.97;66.11;99661.72;10281105;28;20577;-78
2022/09/13 08:36:28;;;;;;;9.68;8.77;;;;;;;18.95;65.99;99663.78;10280132;28;20244;-78
2022/09/13 08:41:40;;;;;;;9.05;8.15;;;;;;;19.07;65.50;99674.88;10279032;28;20050;-76
2022/09/13 08:46:45;;;;;;;8.93;8.02;;;;;;;19.26;65.91;99684.19;10276951;28;20374;-75
2022/09/13 08:51:53;;;;;;;9.00;7.55;;;;;;;19.39;65.58;99678.88;10275842;28;20074;-76
2022/09/13 08:57:06;;;;;;;11.85;8.88;;;;;;;19.75;64.14;99677.91;10279156;28;20046;-74
2022/09/13 09:02:38;;;;;;;9.93;8.50;;;;;;;19.96;63.72;99668.94;10271677;28;20805;-76
2022/09/13 09:07:44;;;;;;;8.95;7.80;;;;;;;20.04;63.65;99678.75;10269870;28;20050;-73
2022/09/13 09:12:48;;;;;;;10.57;8.55;;;;;;;19.73;63.94;99679.97;10290651;28;20062;-74
2022/09/13 09:18:03;;;;;;;10.90;9.20;;;;;;;19.43;65.07;99677.47;10274926;28;20054;-74
2022/09/13 09:23:18;;;;;;;10.70;7.80;;;;;;;19.26;67.55;99673.41;10274265;28;20290;-76
2022/09/13 09:28:22;;;;;;;10.85;9.35;;;;;;;19.07;70.87;99647.91;10277915;28;20050;-74
2022/09/13 09:33:46;;;;;;;12.32;9.07;;;;;;;18.96;71.34;99665.47;10278523;28;20448;-77
2022/09/13 09:38:47;;;;;;;11.93;10.82;;;;;;;18.93;72.83;99651.50;10276637;28;20046;-76
2022/09/13 09:44:05;;;;;;;12.07;10.45;;;;;;;18.86;71.60;99646.88;10277795;28;20054;-75
2022/09/13 09:50:07;;;;;;;13.05;9.23;;;;;;;18.84;73.00;99639.97;10280767;28;20050;-74
2022/09/13 09:54:37;;;;;;;9.98;8.95;;;;;;;18.77;71.46;99650.72;10277475;28;20161;-75
2022/09/13 09:59:38;;;;;;;10.00;9.00;;;;;;;18.89;71.88;99667.25;10279789;28;20042;-78
2022/09/13 10:04:40;;;;;;;9.73;8.77;;;;;;;18.81;72.42;99684.34;10275145;28;20426;-77
2022/09/13 10:09:56;;;;;;;11.55;9.65;;;;;;;18.57;72.17;99680.16;10279354;28;20907;-77
2022/09/13 10:15:13;;;;;;;11.02;9.93;;;;;;;18.48;73.63;99675.88;10279843;28;20050;-73
2022/09/13 10:20:14;;;;;;;10.10;9.10;;;;;;;18.63;73.99;99674.00;10288522;28;20050;-77
2022/09/13 10:25:30;;;;;;;12.70;9.65;;;;;;;18.88;73.65;99684.44;10281190;28;20058;-78
2022/09/13 10:30:36;;;;;;;11.80;10.63;;;;;;;18.86;74.12;99681.13;10279485;28;20057;-75
2022/09/13 10:35:38;;;;;;;12.30;10.30;;;;;;;18.99;74.62;99681.25;10280169;28;20389;-77
2022/09/13 10:40:39;;;;;;;10.52;9.23;;;;;;;19.18;74.91;99670.84;10275884;28;20703;-75
2022/09/13 10:45:41;;;;;;;13.48;10.65;;;;;;;19.25;73.75;99682.53;10278024;28;22009;-79
2022/09/13 10:51:03;;;;;;;12.35;11.15;;;;;;;20.05;71.31;99683.09;10276378;28;20080;-76
2022/09/13 10:56:35;;;;;;;11.90;10.52;;;;;;;20.27;69.71;99683.84;10274812;28;20046;-77
2022/09/13 11:01:55;;;;;;;12.90;11.60;;;;;;;20.09;70.47;99687.09;10274301;28;20057;-76
2022/09/13 11:07:16;;;;;;;11.80;9.98;;;;;;;20.46;70.55;99674.16;10275603;28;20046;-75
2022/09/13 11:12:30;;;;;;;11.85;10.13;;;;;;;20.82;68.42;99667.66;10278371;28;20050;-77
2022/09/13 11:18:03;;;;;;;11.20;10.07;;;;;;;20.58;69.45;99665.47;10276085;28;20050;-78
2022/09/13 11:23:17;;;;;;;17.15;11.00;;;;;;;20.60;69.36;99663.41;10270925;28;20721;-76
2022/09/13 11:28:35;;;;;;;13.05;11.25;;;;;;;20.83;68.23;99663.06;10274194;28;20054;-77
2022/09/13 11:34:03;;;;;;;12.07;9.55;;;;;;;20.54;68.26;99642.59;10278254;28;20054;-75
2022/09/13 11:39:27;;;;;;;11.30;10.10;;;;;;;20.54;69.17;99661.50;10278148;28;20600;-74
2022/09/13 11:44:53;;;;;;;11.13;10.13;;;;;;;20.33;70.00;99649.78;10277180;28;20061;-72
2022/09/13 11:50:08;;;;;;;10.90;9.80;;;;;;;20.39;69.50;99640.88;10283702;28;20505;-77
2022/09/13 11:55:24;;;;;;;9.55;8.55;;;;;;;20.43;69.47;99631.31;10277031;28;20813;-74
2022/09/13 12:00:58;;;;;;;9.48;8.57;;;;;;;20.55;69.42;99628.00;10276866;28;20058;-75
2022/09/13 12:06:05;;;;;;;11.88;9.23;;;;;;;20.83;67.72;99631.44;10273420;28;20120;-77
2022/09/13 12:11:37;;;;;;;13.18;9.18;;;;;;;21.35;66.12;99631.66;10276080;28;20046;-78
2022/09/13 12:16:44;;;;;;;9.65;8.65;;;;;;;22.38;62.57;99610.38;10277399;28;20126;-74
2022/09/13 12:21:48;;;;;;;10.40;8.65;;;;;;;22.38;62.59;99607.66;10273871;28;20054;-78
2022/09/13 12:26:59;;;;;;;9.85;8.27;;;;;;;24.27;56.40;99605.81;10272156;28;20138;-74
2022/09/13 12:32:04;;;;;;;11.50;7.72;;;;;;;28.26;47.73;99590.53;10273218;28;20047;-77
2022/09/13 12:37:15;;;;;;;8.75;7.07;;;;;;;29.84;40.20;99583.91;10270752;28;20574;-73
2022/09/13 12:42:37;;;;;;;7.95;7.25;;;;;;;28.36;41.96;99582.44;10279512;28;20050;-76
2022/09/13 12:47:44;;;;;;;6.95;6.32;;;;;;;26.80;46.42;99580.50;10284224;28;20045;-76
2022/09/13 12:53:18;;;;;;;7.75;6.38;;;;;;;25.59;48.64;99584.91;10277817;28;20162;-76
2022/09/13 12:58:59;;;;;;;7.30;6.20;;;;;;;24.25;52.76;99580.75;10280878;28;20054;-74
2022/09/13 13:04:09;;;;;;;6.32;5.43;;;;;;;23.38;56.02;99576.28;10278114;28;20149;-78
2022/09/13 13:09:22;;;;;;;7.53;5.95;;;;;;;23.00;56.87;99585.34;10275636;28;20081;-77
2022/09/13 13:14:37;;;;;;;6.88;6.13;;;;;;;22.98;58.03;99579.31;10280495;28;20073;-77
2022/09/13 13:19:39;;;;;;;7.40;6.78;;;;;;;22.71;58.76;99568.66;10282107;28;20381;-74
2022/09/13 13:24:45;;;;;;;7.28;5.40;;;;;;;23.34;57.41;99570.44;10306310;28;20514;-76
2022/09/13 13:30:32;;;;;;;9.65;6.85;;;;;;;23.50;56.37;99558.19;10309487;28;20054;-77
2022/09/13 13:35:34;;;;;;;7.57;5.75;;;;;;;23.30;57.03;99559.22;10291658;28;20624;-74
2022/09/13 13:40:35;;;;;;;7.38;5.75;;;;;;;23.37;57.12;99555.59;10282456;28;20054;-76
2022/09/13 13:45:36;;;;;;;7.03;6.32;;;;;;;23.45;57.15;99553.44;10280896;28;20410;-75
2022/09/13 13:51:09;;;;;;;7.53;6.82;;;;;;;23.28;57.58;99542.34;10282934;28;20120;-77
2022/09/13 13:56:27;;;;;;;8.05;7.35;;;;;;;23.16;58.41;99546.00;10279615;28;20054;-77
2022/09/13 14:01:32;;;;;;;8.02;7.13;;;;;;;23.21;58.83;99533.41;10278329;28;20557;-76
2022/09/13 14:07:15;;;;;;;7.90;7.10;;;;;;;23.15;59.22;99528.03;10290422;28;20528;-75
2022/09/13 14:12:54;;;;;;;9.05;8.00;;;;;;;22.83;60.13;99523.50;10226237;28;20054;-75
2022/09/13 14:18:12;;;;;;;7.68;6.60;;;;;;;22.64;60.61;99516.34;10228762;28;20053;-80
2022/09/13 14:23:18;;;;;;;7.28;6.57;;;;;;;22.53;60.96;99521.44;10228534;28;20051;-77
2022/09/13 14:28:21;;;;;;;7.68;6.88;;;;;;;22.24;61.31;99510.13;10229007;28;20079;-74
2022/09/13 14:33:25;;;;;;;;;;;;;;;22.09;61.92;99517.72;10230326;28;20222;-79
2022/09/13 14:38:32;;;;;;;7.47;6.78;;;;;;;21.88;63.39;99519.69;10227726;28;19930;-74
2022/09/13 14:43:33;;;;;;;8.90;8.00;;;;;;;21.76;67.14;99510.59;10228541;28;20574;-77
2022/09/13 14:48:44;;;;;;;9.93;7.18;;;;;;;21.64;67.88;99507.72;10227143;28;21028;-76
2022/09/13 14:53:49;;;;;;;9.63;7.13;;;;;;;21.59;69.65;99503.97;10227507;28;20065;-75
2022/09/13 14:58:55;;;;;;;9.15;8.23;;;;;;;21.47;70.07;99496.50;10226704;28;20058;-80
2022/09/13 15:03:59;;;;;;;8.18;7.47;;;;;;;21.52;72.34;99480.47;10224587;28;20047;-75
2022/09/13 15:09:26;;;;;;;8.18;7.32;;;;;;;21.50;71.05;99485.28;10226003;28;20070;-72
2022/09/13 15:14:38;;;;;;;8.80;7.90;;;;;;;21.53;71.26;99473.19;10228979;28;20125;-76
2022/09/13 15:19:50;;;;;;;9.48;7.57;;;;;;;21.51;71.43;99476.13;10225898;28;20058;-77
2022/09/13 15:24:54;;;;;;;7.70;6.80;;;;;;;21.41;72.82;99458.59;10227671;28;20949;-75
2022/09/13 15:30:01;;;;;;;8.50;7.00;;;;;;;21.33;73.51;99459.69;10225292;28;20737;-73
2022/09/13 15:35:22;;;;;;;11.65;6.78;;;;;;;21.23;75.06;99462.84;10229617;28;20486;-76
2022/09/13 15:40:24;;;;;;;7.10;6.50;;;;;;;21.27;75.32;99463.25;10234701;28;20422;-69
2022/09/13 15:45:26;;;;;;;9.57;7.07;;;;;;;21.18;74.91;99452.66;10235110;28;21552;-76
2022/09/13 15:50:30;;;;;;;9.50;8.18;;;;;;;21.18;75.18;99460.78;10229231;28;20122;-73
2022/09/13 15:55:31;;;;;;;9.63;7.25;;;;;;;21.17;75.93;99458.28;10199343;28;20056;-71
2022/09/13 16:00:32;;;;;;;7.55;6.85;;;;;;;21.11;75.57;99448.31;10200915;28;20059;-75
2022/09/13 16:05:35;;;;;;;9.43;8.05;;;;;;;21.07;76.20;99445.19;10179427;28;20055;-73
2022/09/13 16:10:37;;;;;;;8.10;7.17;;;;;;;21.05;76.28;99439.16;10223455;28;20242;-74
2022/09/13 16:15:38;;;;;;;7.75;6.63;;;;;;;21.00;75.82;99433.53;10230701;28;20062;-73
2022/09/13 16:20:40;;;;;;;8.82;8.02;;;;;;;20.99;76.46;99445.44;10231701;28;20050;-72
2022/09/13 16:25:41;;;;;;;11.55;7.65;;;;;;;20.89;76.30;99435.03;10232104;28;20414;-75
2022/09/13 16:30:43;;;;;;;7.88;7.07;;;;;;;20.95;77.53;99444.19;10233895;28;20130;-75
2022/09/13 16:35:45;;;;;;;9.00;8.15;;;;;;;20.91;76.49;99426.69;10230530;28;20627;-72
2022/09/13 16:40:47;;;;;;;8.52;7.60;;;;;;;20.89;77.20;99429.63;10233317;28;20047;-79
2022/09/13 16:45:50;;;;;;;11.65;8.35;;;;;;;20.84;76.42;99426.72;10228100;28;20565;-76
2022/09/13 16:50:51;;;;;;;10.05;8.95;;;;;;;20.81;75.99;99432.56;10225627;28;20050;-78
2022/09/13 16:56:03;;;;;;;14.00;9.60;;;;;;;20.71;75.75;99432.97;10227969;28;20055;-79
2022/09/13 17:01:09;;;;;;;9.80;8.80;;;;;;;20.75;76.00;99444.22;10230887;28;20058;-75
2022/09/13 17:06:13;;;;;;;11.30;8.90;;;;;;;20.75;76.58;99458.56;10229385;28;20053;-79
2022/09/13 17:11:17;;;;;;;10.30;9.25;;;;;;;20.71;77.17;99442.97;10225694;28;20065;-73
2022/09/13 17:16:28;;;;;;;10.85;8.35;;;;;;;20.71;79.33;99451.91;10233547;28;20146;-73
2022/09/13 17:21:31;;;;;;;8.27;7.07;;;;;;;20.75;79.06;99457.75;10235008;28;20677;-77
2022/09/13 17:26:33;;;;;;;9.32;8.13;;;;;;;20.77;79.59;99464.59;10229736;28;20595;-75
2022/09/13 17:31:35;;;;;;;9.73;8.82;;;;;;;20.78;81.30;99462.72;10242279;28;20458;-73
2022/09/13 17:36:40;;;;;;;10.30;8.90;;;;;;;20.73;81.91;99476.03;10244855;28;20078;-77
2022/09/13 17:41:41;;;;;;;8.95;8.05;;;;;;;20.69;82.10;99462.09;10225694;28;20066;-75
2022/09/13 17:46:43;;;;;;;9.35;8.45;;;;;;;20.70;81.45;99450.22;10223989;28;20054;-78
2022/09/13 17:51:45;;;;;;;10.82;9.82;;;;;;;20.68;82.49;99448.81;10231308;28;20061;-78
2022/09/13 17:56:46;;;;;;;19.35;10.40;;;;;;;20.64;82.93;99464.56;10225932;28;20590;-75
2022/09/13 18:01:50;;;;;;;10.95;9.95;;;;;;;20.63;81.37;99481.84;10227412;28;20067;-73
2022/09/13 18:06:53;;;;;;;13.82;9.90;;;;;;;20.59;81.46;99472.47;10232947;28;20063;-70
2022/09/13 18:11:54;;;;;;;13.40;11.80;;;;;;;20.54;83.71;99453.34;10237138;28;20051;-73
2022/09/13 18:16:56;;;;;;;12.00;10.73;;;;;;;20.48;84.51;99455.84;10232290;28;20059;-71
2022/09/13 18:22:00;;;;;;;14.25;11.68;;;;;;;20.53;84.33;99473.31;10237147;28;20055;-71
2022/09/13 18:27:02;;;;;;;;;;;;;;;20.49;85.96;99468.31;10238077;28;20324;-75
2022/09/13 18:32:03;;;;;;;11.55;10.45;;;;;;;20.51;86.46;99460.00;10237758;28;19930;-76
2022/09/13 18:37:04;;;;;;;12.27;11.13;;;;;;;20.44;87.02;99448.34;10236503;28;20135;-74
2022/09/13 18:42:06;;;;;;;14.82;12.32;;;;;;;20.38;88.88;99428.38;10239907;28;20104;-76
2022/09/13 18:47:11;;;;;;;13.00;11.70;;;;;;;20.29;89.45;99425.06;10234356;28;20047;-73
2022/09/13 18:52:13;;;;;;;13.05;11.80;;;;;;;20.27;90.45;99421.72;10239279;28;20055;-72
2022/09/13 18:57:14;;;;;;;11.73;10.63;;;;;;;20.26;91.69;99419.25;10236984;28;20085;-73
2022/09/13 19:02:15;;;;;;;13.55;11.30;;;;;;;20.27;91.79;99443.34;10234049;28;20511;-72
2022/09/13 19:07:16;;;;;;;14.30;11.52;;;;;;;20.22;91.72;99440.44;10232063;28;20114;-73
2022/09/13 19:12:18;;;;;;;12.32;11.18;;;;;;;20.18;94.17;99449.19;10231927;28;20058;-74
2022/09/13 19:17:19;;;;;;;12.00;10.90;;;;;;;20.16;94.87;99448.53;10237295;28;20385;-72
2022/09/13 19:22:21;;;;;;;12.18;10.93;;;;;;;20.17;95.62;99461.00;10242104;28;20054;-74
2022/09/13 19:27:22;;;;;;;13.50;11.50;;;;;;;20.09;95.72;99451.22;10234008;28;20043;-73
2022/09/13 19:32:24;;;;;;;13.43;12.13;;;;;;;20.10;95.70;99445.63;10233065;28;20053;-76
2022/09/13 19:37:26;;;;;;;12.13;11.02;;;;;;;20.17;96.08;99431.28;10247947;28;20047;-74
2022/09/13 19:42:27;;;;;;;16.67;13.95;;;;;;;20.10;96.39;99415.91;10234045;28;20792;-73
2022/09/13 19:47:28;;;;;;;16.27;14.70;;;;;;;20.13;96.64;99425.44;10235293;28;20055;-74
2022/09/13 19:52:49;;;;;;;14.90;13.27;;;;;;;20.11;97.45;99430.25;10237160;28;20148;-73
2022/09/13 19:57:51;;;;;;;14.07;12.68;;;;;;;20.11;97.13;99439.16;10245440;28;20047;-73
2022/09/13 20:02:52;;;;;;;12.98;11.77;;;;;;;20.12;95.76;99429.22;10233505;28;20046;-73
2022/09/13 20:07:54;;;;;;;12.35;11.15;;;;;;;20.14;95.87;99427.94;10234540;28;20043;-71
2022/09/13 20:12:56;;;;;;;13.40;12.18;;;;;;;20.18;94.60;99435.66;10226546;28;20594;-74
2022/09/13 20:17:57;;;;;;;13.40;12.10;;;;;;;20.10;93.90;99429.41;10231528;28;20054;-74
2022/09/13 20:22:58;;;;;;;13.15;11.77;;;;;;;20.10;95.52;99431.25;10233124;28;20055;-75
2022/09/13 20:28:00;;;;;;;14.77;13.27;;;;;;;20.07;95.92;99421.72;10230263;28;20157;-75
2022/09/13 20:33:03;;;;;;;13.65;11.93;;;;;;;20.15;94.79;99434.19;10229484;28;20070;-74
2022/09/13 20:38:05;;;;;;;14.98;13.57;;;;;;;20.17;95.94;99440.22;10221855;28;20214;-74
2022/09/13 20:43:06;;;;;;;13.70;12.50;;;;;;;20.11;95.72;99449.16;10231076;28;20065;-73
2022/09/13 20:48:08;;;;;;;13.95;12.35;;;;;;;20.17;95.33;99461.00;10231804;28;20094;-80
2022/09/13 20:53:09;;;;;;;14.43;13.13;;;;;;;20.10;96.45;99437.53;10230385;28;20070;-73
2022/09/13 20:58:11;;;;;;;14.13;12.82;;;;;;;20.11;96.56;99433.75;10230855;28;20077;-74
2022/09/13 21:03:14;;;;;;;14.73;13.20;;;;;;;20.09;97.49;99419.63;10240918;28;20484;-73
2022/09/13 21:13:40;;;;;;;14.30;12.77;;;;;;;20.03;97.67;99425.03;10241148;28;20638;-73
2022/09/13 21:18:43;;;;;;;14.50;13.20;;;;;;;20.02;97.00;99432.31;10240183;28;20331;-76
2022/09/13 21:23:46;;;;;;;15.00;13.50;;;;;;;19.93;97.29;99415.44;10234548;28;20050;-75
2022/09/13 21:28:48;;;;;;;13.43;11.85;;;;;;;19.87;97.30;99415.44;10246901;28;20483;-73
2022/09/13 21:33:58;;;;;;;12.55;11.35;;;;;;;19.88;98.39;99396.34;10232878;28;20047;-77
2022/09/13 21:39:00;;;;;;;13.10;11.80;;;;;;;19.82;98.81;99390.94;10238355;28;20059;-74
2022/09/13 21:44:02;;;;;;;12.75;11.57;;;;;;;19.81;99.37;99394.66;10241669;28;20545;-72
2022/09/13 21:49:06;;;;;;;13.93;12.43;;;;;;;19.84;99.89;99372.66;10248274;28;20078;-72
2022/09/13 21:54:10;;;;;;;14.50;13.18;;;;;;;19.78;99.02;99353.53;10237966;28;20079;-73
2022/09/13 21:59:15;;;;;;;14.30;12.90;;;;;;;19.75;99.55;99353.09;10243226;28;20062;-75
2022/09/13 22:04:23;;;;;;;14.32;12.35;;;;;;;19.65;100.00;99353.50;10241899;28;20055;-76
2022/09/13 22:09:26;;;;;;;13.77;12.48;;;;;;;19.74;98.42;99379.25;10236564;28;20059;-76
2022/09/13 22:14:27;;;;;;;14.00;12.70;;;;;;;19.66;100.00;99375.91;10257389;28;20054;-76
2022/09/13 22:19:30;;;;;;;14.13;12.93;;;;;;;19.60;100.00;99372.16;10245453;28;20054;-72
2022/09/13 22:24:32;;;;;;;12.60;11.40;;;;;;;19.64;100.00;99370.72;10237674;28;20618;-70
2022/09/13 22:29:33;;;;;;;15.13;13.52;;;;;;;19.61;100.00;99357.63;10231954;28;20646;-73
2022/09/13 22:34:34;;;;;;;14.50;13.00;;;;;;;19.57;100.00;99334.78;10230470;28;20055;-73
2022/09/13 22:39:37;;;;;;;13.82;12.40;;;;;;;19.55;100.00;99315.28;10236519;28;20639;-73
2022/09/13 22:44:38;;;;;;;14.63;12.52;;;;;;;19.57;100.00;99321.28;10232011;28;20066;-71
2022/09/13 22:49:40;;;;;;;12.77;11.57;;;;;;;19.57;100.00;99308.59;10233096;28;20158;-72
2022/09/13 22:54:41;;;;;;;12.85;11.70;;;;;;;19.56;100.00;99327.72;10236789;28;20062;-76
2022/09/13 22:59:42;;;;;;;12.65;11.35;;;;;;;19.58;100.00;99336.44;10233908;28;20081;-73
2022/09/13 23:04:43;;;;;;;13.00;11.73;;;;;;;19.57;100.00;99351.78;10227764;28;20875;-74
2022/09/13 23:09:45;;;;;;;13.32;12.02;;;;;;;19.48;100.00;99341.41;10225748;28;20050;-73
2022/09/13 23:14:46;;;;;;;13.60;12.15;;;;;;;19.39;100.00;99324.56;10233083;28;20733;-74
2022/09/13 23:19:48;;;;;;;13.77;12.45;;;;;;;19.40;100.00;99316.25;10230359;28;20070;-73
2022/09/13 23:24:49;;;;;;;13.25;11.95;;;;;;;19.41;100.00;99315.25;10231278;28;20047;-74
2022/09/13 23:29:50;;;;;;;12.82;11.52;;;;;;;19.39;100.00;99295.69;10228495;28;20055;-72
2022/09/13 23:34:51;;;;;;;13.55;12.25;;;;;;;19.37;100.00;99303.19;10234507;28;20051;-74
2022/09/13 23:39:54;;;;;;;12.38;11.18;;;;;;;19.37;100.00;99313.16;10230906;28;20051;-71
2022/09/13 23:44:55;;;;;;;12.70;11.48;;;;;;;19.34;100.00;99303.59;10233276;28;20043;-77